sensor_id;sensor_type;location;lat;lon;timestamp;pressure;altitude;pressure_sealevel;temperature;humidity
44734;BME280;30462;52.446;-1.930;2023-06-14T00:00:18;100455.8555;;;;
44734;BME280;30462;52.446;-1.930;2023-06-14T00:01:17;100451.1484;;;;
44734;BME280;30462;52.446;-1.930;2023-06-14T00:02:18;100452.5977;;;;
44734;BME280;30462;52.446;-1.930;2023-06-14T00:03:19;100452.3516;;;;
44734;BME280;30462;52.446;-1.930;2023-06-14T00:04:18;100452.5;;;;
44734;BME280;30462;52.446;-1.930;2023-06-14T00:05:17;100453.9844;;;;
44734;BME280;30462;52.446;-1.930;2023-06-14T00:06:18;100454.793;;;;
44734;BME280;30462;52.446;-1.930;2023-06-14T00:07:20;100456.5977;;;;
44734;BME280;30462;52.446;-1.930;2023-06-14T00:08:18;100456.6328;;;;
44734;BME280;30462;52.446;-1.930;2023-06-14T00:09:18;100454.3789;;;;
44734;BME280;30462;52.446;-1.930;2023-06-14T00:10:17;100454.9648;;;;
44734;BME280;30462;52.446;-1.930;2023-06-14T00:11:18;100454.1719;;;;
44734;BME280;30462;52.446;-1.930;2023-06-14T00:12:18;100452.7266;;;;
44734;BME280;30462;52.446;-1.930;2023-06-14T00:13:18;100452.8555;;;;
44734;BME280;30462;52.446;-1.930;2023-06-14T00:14:17;100449.9922;;;;
44734;BME280;30462;52.446;-1.930;2023-06-14T00:15:17;100448.4648;;;;
44734;BME280;30462;52.446;-1.930;2023-06-14T00:16:18;100448.9609;;;;
44734;BME280;30462;52.446;-1.930;2023-06-14T00:17:18;100449.8945;;;;
44734;BME280;30462;52.446;-1.930;2023-06-14T00:18:18;100448.6406;;;;
44734;BME280;30462;52.446;-1.930;2023-06-14T00:19:17;100447.375;;;;
44734;BME280;30462;52.446;-1.930;2023-06-14T00:20:18;100449.2344;;;;
44734;BME280;30462;52.446;-1.930;2023-06-14T00:21:18;100446.9375;;;;
44734;BME280;30462;52.446;-1.930;2023-06-14T00:22:18;100449.0078;;;;
44734;BME280;30462;52.446;-1.930;2023-06-14T00:23:18;100449.043;;;;
44734;BME280;30462;52.446;-1.930;2023-06-14T00:24:18;100446.7969;;;;
44734;BME280;30462;52.446;-1.930;2023-06-14T00:25:17;100447.0977;;;;
44734;BME280;30462;52.446;-1.930;2023-06-14T00:26:18;100446.3594;;;;
44734;BME280;30462;52.446;-1.930;2023-06-14T00:27:18;100450.2305;;;;
44734;BME280;30462;52.446;-1.930;2023-06-14T00:28:18;100446.5469;;;;
44734;BME280;30462;52.446;-1.930;2023-06-14T00:29:18;100445.9805;;;;
44734;BME280;30462;52.446;-1.930;2023-06-14T00:30:18;100448.043;;;;
44734;BME280;30462;52.446;-1.930;2023-06-14T00:31:17;100446.418;;;;
44734;BME280;30462;52.446;-1.930;2023-06-14T00:32:18;100448.7383;;;;
44734;BME280;30462;52.446;-1.930;2023-06-14T00:33:18;100450.4414;;;;
44734;BME280;30462;52.446;-1.930;2023-06-14T00:34:17;100446.4531;;;;
44734;BME280;30462;52.446;-1.930;2023-06-14T00:35:18;100445.8281;;;;
44734;BME280;30462;52.446;-1.930;2023-06-14T00:36:18;100445.1055;;;;
44734;BME280;30462;52.446;-1.930;2023-06-14T00:37:18;100444.8945;;;;
44734;BME280;30462;52.446;-1.930;2023-06-14T00:38:18;100446.5469;;;;
44734;BME280;30462;52.446;-1.930;2023-06-14T00:39:18;100445.582;;;;
44734;BME280;30462;52.446;-1.930;2023-06-14T00:40:17;100443.3672;;;;
44734;BME280;30462;52.446;-1.930;2023-06-14T00:41:18;100444.1172;;;;
44734;BME280;30462;52.446;-1.930;2023-06-14T00:43:18;100448.9297;;;;
44734;BME280;30462;52.446;-1.930;2023-06-14T00:44:18;100448.7461;;;;
44734;BME280;30462;52.446;-1.930;2023-06-14T00:45:18;100444.4141;;;;
44734;BME280;30462;52.446;-1.930;2023-06-14T00:46:18;100444.4258;;;;
44734;BME280;30462;52.446;-1.930;2023-06-14T00:47:18;100446.9844;;;;
44734;BME280;30462;52.446;-1.930;2023-06-14T00:48:18;100446.3789;;;;
44734;BME280;30462;52.446;-1.930;2023-06-14T00:49:18;100450.9102;;;;
44734;BME280;30462;52.446;-1.930;2023-06-14T00:50:17;100450.6914;;;;
44734;BME280;30462;52.446;-1.930;2023-06-14T00:51:18;100447.9336;;;;
44734;BME280;30462;52.446;-1.930;2023-06-14T00:52:18;100449.707;;;;
44734;BME280;30462;52.446;-1.930;2023-06-14T00:53:18;100454.0195;;;;
44734;BME280;30462;52.446;-1.930;2023-06-14T00:54:18;100448.0703;;;;
44734;BME280;30462;52.446;-1.930;2023-06-14T00:55:18;100450.4023;;;;
44734;BME280;30462;52.446;-1.930;2023-06-14T00:56:18;100452.2891;;;;
44734;BME280;30462;52.446;-1.930;2023-06-14T00:57:17;100456.4766;;;;
44734;BME280;30462;52.446;-1.930;2023-06-14T00:58:18;100453.3477;;;;
44734;BME280;30462;52.446;-1.930;2023-06-14T00:59:18;100455.2227;;;;
44734;BME280;30462;52.446;-1.930;2023-06-14T01:00:17;100454.3164;;;;
44734;BME280;30462;52.446;-1.930;2023-06-14T01:01:18;100459.7422;;;;
44734;BME280;30462;52.446;-1.930;2023-06-14T01:02:18;100456.2539;;;;
44734;BME280;30462;52.446;-1.930;2023-06-14T01:03:18;100459.3438;;;;
44734;BME280;30462;52.446;-1.930;2023-06-14T01:04:18;100458.1328;;;;
44734;BME280;30462;52.446;-1.930;2023-06-14T01:05:17;100458.0234;;;;
44734;BME280;30462;52.446;-1.930;2023-06-14T01:06:20;100457.6367;;;;
44734;BME280;30462;52.446;-1.930;2023-06-14T01:07:25;100459.332;;;;
44734;BME280;30462;52.446;-1.930;2023-06-14T01:08:21;100458.1953;;;;
44734;BME280;30462;52.446;-1.930;2023-06-14T01:09:18;100456.6914;;;;
44734;BME280;30462;52.446;-1.930;2023-06-14T01:11:18;100458.1445;;;;
44734;BME280;30462;52.446;-1.930;2023-06-14T01:12:19;100461.7148;;;;
44734;BME280;30462;52.446;-1.930;2023-06-14T01:13:19;100459.6602;;;;
44734;BME280;30462;52.446;-1.930;2023-06-14T01:14:17;100460.4492;;;;
44734;BME280;30462;52.446;-1.930;2023-06-14T01:15:18;100459.1875;;;;
44734;BME280;30462;52.446;-1.930;2023-06-14T01:16:18;100460.1016;;;;
44734;BME280;30462;52.446;-1.930;2023-06-14T01:17:18;100456.7969;;;;
44734;BME280;30462;52.446;-1.930;2023-06-14T01:18:18;100458.8125;;;;
44734;BME280;30462;52.446;-1.930;2023-06-14T01:19:18;100461.1484;;;;
44734;BME280;30462;52.446;-1.930;2023-06-14T01:20:18;100458.7031;;;;
44734;BME280;30462;52.446;-1.930;2023-06-14T01:21:20;100459.0391;;;;
44734;BME280;30462;52.446;-1.930;2023-06-14T01:22:18;100460.4727;;;;
44734;BME280;30462;52.446;-1.930;2023-06-14T01:23:18;100459.6563;;;;
44734;BME280;30462;52.446;-1.930;2023-06-14T01:24:17;100460.375;;;;
44734;BME280;30462;52.446;-1.930;2023-06-14T01:25:18;100455.5977;;;;
44734;BME280;30462;52.446;-1.930;2023-06-14T01:26:18;100457.1484;;;;
44734;BME280;30462;52.446;-1.930;2023-06-14T01:27:17;100461.6914;;;;
44734;BME280;30462;52.446;-1.930;2023-06-14T01:28:18;100460.0234;;;;
44734;BME280;30462;52.446;-1.930;2023-06-14T01:29:18;100460.5859;;;;
44734;BME280;30462;52.446;-1.930;2023-06-14T01:30:18;100463.2891;;;;
44734;BME280;30462;52.446;-1.930;2023-06-14T01:31:19;100463.8711;;;;
44734;BME280;30462;52.446;-1.930;2023-06-14T01:32:18;100462.6797;;;;
44734;BME280;30462;52.446;-1.930;2023-06-14T01:33:18;100465.332;;;;
44734;BME280;30462;52.446;-1.930;2023-06-14T01:34:18;100464.3125;;;;
44734;BME280;30462;52.446;-1.930;2023-06-14T01:35:18;100464.5039;;;;
44734;BME280;30462;52.446;-1.930;2023-06-14T01:36:18;100465.4258;;;;
44734;BME280;30462;52.446;-1.930;2023-06-14T01:37:18;100461.9492;;;;
44734;BME280;30462;52.446;-1.930;2023-06-14T01:38:18;100464.8008;;;;
44734;BME280;30462;52.446;-1.930;2023-06-14T01:39:17;100465.0742;;;;
44734;BME280;30462;52.446;-1.930;2023-06-14T01:40:18;100465.293;;;;
44734;BME280;30462;52.446;-1.930;2023-06-14T01:41:18;100466.0234;;;;
44734;BME280;30462;52.446;-1.930;2023-06-14T01:42:18;100466.2422;;;;
44734;BME280;30462;52.446;-1.930;2023-06-14T01:43:18;100466.7305;;;;
44734;BME280;30462;52.446;-1.930;2023-06-14T01:44:18;100468.5313;;;;
44734;BME280;30462;52.446;-1.930;2023-06-14T01:45:19;100470.6328;;;;
44734;BME280;30462;52.446;-1.930;2023-06-14T01:46:20;100473.3828;;;;
44734;BME280;30462;52.446;-1.930;2023-06-14T01:47:18;100471.5273;;;;
44734;BME280;30462;52.446;-1.930;2023-06-14T01:48:18;100467.3086;;;;
44734;BME280;30462;52.446;-1.930;2023-06-14T01:49:18;100470.6641;;;;
44734;BME280;30462;52.446;-1.930;2023-06-14T01:50:18;100468.3086;;;;
44734;BME280;30462;52.446;-1.930;2023-06-14T01:51:18;100465.9258;;;;
44734;BME280;30462;52.446;-1.930;2023-06-14T01:52:17;100470.375;;;;
44734;BME280;30462;52.446;-1.930;2023-06-14T01:53:18;100464.5469;;;;
44734;BME280;30462;52.446;-1.930;2023-06-14T01:54:18;100465.6211;;;;
44734;BME280;30462;52.446;-1.930;2023-06-14T01:55:17;100468.2148;;;;
44734;BME280;30462;52.446;-1.930;2023-06-14T01:56:18;100465.0625;;;;
44734;BME280;30462;52.446;-1.930;2023-06-14T01:57:19;100466.2305;;;;
44734;BME280;30462;52.446;-1.930;2023-06-14T01:58:18;100467.8242;;;;
44734;BME280;30462;52.446;-1.930;2023-06-14T01:59:18;100467.4258;;;;
44734;BME280;30462;52.446;-1.930;2023-06-14T02:00:18;100466.3086;;;;
44734;BME280;30462;52.446;-1.930;2023-06-14T02:01:18;100466.6211;;;;
44734;BME280;30462;52.446;-1.930;2023-06-14T02:02:17;100470.6992;;;;
44734;BME280;30462;52.446;-1.930;2023-06-14T02:03:17;100474.0313;;;;
44734;BME280;30462;52.446;-1.930;2023-06-14T02:04:18;100472.6953;;;;
44734;BME280;30462;52.446;-1.930;2023-06-14T02:05:18;100472.1992;;;;
44734;BME280;30462;52.446;-1.930;2023-06-14T02:06:18;100471.0508;;;;
44734;BME280;30462;52.446;-1.930;2023-06-14T02:07:18;100468.5469;;;;
44734;BME280;30462;52.446;-1.930;2023-06-14T02:08:18;100470.043;;;;
44734;BME280;30462;52.446;-1.930;2023-06-14T02:09:18;100467.3477;;;;
44734;BME280;30462;52.446;-1.930;2023-06-14T02:10:18;100470.1289;;;;
44734;BME280;30462;52.446;-1.930;2023-06-14T02:11:17;100467.207;;;;
44734;BME280;30462;52.446;-1.930;2023-06-14T02:12:18;100465.8945;;;;
44734;BME280;30462;52.446;-1.930;2023-06-14T02:13:18;100468.3906;;;;
44734;BME280;30462;52.446;-1.930;2023-06-14T02:14:18;100466.3516;;;;
44734;BME280;30462;52.446;-1.930;2023-06-14T02:15:18;100473.0625;;;;
44734;BME280;30462;52.446;-1.930;2023-06-14T02:16:18;100467.543;;;;
44734;BME280;30462;52.446;-1.930;2023-06-14T02:17:17;100470.6367;;;;
44734;BME280;30462;52.446;-1.930;2023-06-14T02:18:18;100469.0938;;;;
44734;BME280;30462;52.446;-1.930;2023-06-14T02:19:18;100469.2227;;;;
44734;BME280;30462;52.446;-1.930;2023-06-14T02:20:18;100470.0742;;;;
44734;BME280;30462;52.446;-1.930;2023-06-14T02:21:17;100469.1406;;;;
44734;BME280;30462;52.446;-1.930;2023-06-14T02:22:18;100472.8008;;;;
44734;BME280;30462;52.446;-1.930;2023-06-14T02:23:18;100469.6133;;;;
44734;BME280;30462;52.446;-1.930;2023-06-14T02:24:18;100471.2656;;;;
44734;BME280;30462;52.446;-1.930;2023-06-14T02:25:18;100471.0664;;;;
44734;BME280;30462;52.446;-1.930;2023-06-14T02:26:17;100473.0703;;;;
44734;BME280;30462;52.446;-1.930;2023-06-14T02:27:18;100468.8242;;;;
44734;BME280;30462;52.446;-1.930;2023-06-14T02:28:18;100475.0742;;;;
44734;BME280;30462;52.446;-1.930;2023-06-14T02:29:18;100466.5117;;;;
44734;BME280;30462;52.446;-1.930;2023-06-14T02:30:18;100469.2656;;;;
44734;BME280;30462;52.446;-1.930;2023-06-14T02:31:17;100467.0547;;;;
44734;BME280;30462;52.446;-1.930;2023-06-14T02:32:18;100466.3047;;;;
44734;BME280;30462;52.446;-1.930;2023-06-14T02:33:18;100463.9063;;;;
44734;BME280;30462;52.446;-1.930;2023-06-14T02:34:18;100465.4102;;;;
44734;BME280;30462;52.446;-1.930;2023-06-14T02:35:18;100463.8242;;;;
44734;BME280;30462;52.446;-1.930;2023-06-14T02:36:18;100465.8945;;;;
44734;BME280;30462;52.446;-1.930;2023-06-14T02:37:18;100462.8906;;;;
44734;BME280;30462;52.446;-1.930;2023-06-14T02:38:18;100465.0586;;;;
44734;BME280;30462;52.446;-1.930;2023-06-14T02:39:17;100464.6563;;;;
44734;BME280;30462;52.446;-1.930;2023-06-14T02:40:18;100466.0117;;;;
44734;BME280;30462;52.446;-1.930;2023-06-14T02:41:18;100466.8672;;;;
44734;BME280;30462;52.446;-1.930;2023-06-14T02:42:18;100468.9414;;;;
44734;BME280;30462;52.446;-1.930;2023-06-14T02:43:18;100466.4609;;;;
44734;BME280;30462;52.446;-1.930;2023-06-14T02:44:18;100467.7852;;;;
44734;BME280;30462;52.446;-1.930;2023-06-14T02:45:18;100467.2578;;;;
44734;BME280;30462;52.446;-1.930;2023-06-14T02:46:18;100467.4727;;;;
44734;BME280;30462;52.446;-1.930;2023-06-14T02:47:17;100466.9258;;;;
44734;BME280;30462;52.446;-1.930;2023-06-14T02:48:18;100468.6055;;;;
44734;BME280;30462;52.446;-1.930;2023-06-14T02:49:18;100467.5039;;;;
44734;BME280;30462;52.446;-1.930;2023-06-14T02:50:18;100466.0156;;;;
44734;BME280;30462;52.446;-1.930;2023-06-14T02:51:18;100464.9453;;;;
44734;BME280;30462;52.446;-1.930;2023-06-14T02:52:18;100468.6602;;;;
44734;BME280;30462;52.446;-1.930;2023-06-14T02:53:18;100464.6797;;;;
44734;BME280;30462;52.446;-1.930;2023-06-14T02:54:18;100467.2109;;;;
44734;BME280;30462;52.446;-1.930;2023-06-14T02:55:18;100468.2031;;;;
44734;BME280;30462;52.446;-1.930;2023-06-14T02:56:18;100467.2227;;;;
44734;BME280;30462;52.446;-1.930;2023-06-14T02:57:18;100465.8711;;;;
44734;BME280;30462;52.446;-1.930;2023-06-14T02:58:17;100465.6797;;;;
44734;BME280;30462;52.446;-1.930;2023-06-14T02:59:18;100465.457;;;;
44734;BME280;30462;52.446;-1.930;2023-06-14T03:00:18;100467.1602;;;;
44734;BME280;30462;52.446;-1.930;2023-06-14T03:01:18;100469.6914;;;;
44734;BME280;30462;52.446;-1.930;2023-06-14T03:02:17;100467.2422;;;;
44734;BME280;30462;52.446;-1.930;2023-06-14T03:03:17;100469.8281;;;;
44734;BME280;30462;52.446;-1.930;2023-06-14T03:04:18;100469.3867;;;;
44734;BME280;30462;52.446;-1.930;2023-06-14T03:05:18;100471.2031;;;;
44734;BME280;30462;52.446;-1.930;2023-06-14T03:06:18;100470.3242;;;;
44734;BME280;30462;52.446;-1.930;2023-06-14T03:07:18;100472.3047;;;;
44734;BME280;30462;52.446;-1.930;2023-06-14T03:08:18;100474.3633;;;;
44734;BME280;30462;52.446;-1.930;2023-06-14T03:09:18;100472.2227;;;;
44734;BME280;30462;52.446;-1.930;2023-06-14T03:10:18;100474.8867;;;;
44734;BME280;30462;52.446;-1.930;2023-06-14T03:11:17;100473.1016;;;;
44734;BME280;30462;52.446;-1.930;2023-06-14T03:12:18;100470.0508;;;;
44734;BME280;30462;52.446;-1.930;2023-06-14T03:13:18;100472.1367;;;;
44734;BME280;30462;52.446;-1.930;2023-06-14T03:14:18;100473.2891;;;;
44734;BME280;30462;52.446;-1.930;2023-06-14T03:15:18;100468.0469;;;;
44734;BME280;30462;52.446;-1.930;2023-06-14T03:16:18;100471.5898;;;;
44734;BME280;30462;52.446;-1.930;2023-06-14T03:17:18;100470.3008;;;;
44734;BME280;30462;52.446;-1.930;2023-06-14T03:18:17;100470.625;;;;
44734;BME280;30462;52.446;-1.930;2023-06-14T03:19:18;100471.5039;;;;
44734;BME280;30462;52.446;-1.930;2023-06-14T03:20:18;100472.5508;;;;
44734;BME280;30462;52.446;-1.930;2023-06-14T03:21:18;100469.4453;;;;
44734;BME280;30462;52.446;-1.930;2023-06-14T03:22:18;100470.5977;;;;
44734;BME280;30462;52.446;-1.930;2023-06-14T03:23:18;100465.9297;;;;
44734;BME280;30462;52.446;-1.930;2023-06-14T03:24:18;100466.6406;;;;
44734;BME280;30462;52.446;-1.930;2023-06-14T03:25:18;100464.5547;;;;
44734;BME280;30462;52.446;-1.930;2023-06-14T03:26:18;100465.1563;;;;
44734;BME280;30462;52.446;-1.930;2023-06-14T03:27:18;100464.0313;;;;
44734;BME280;30462;52.446;-1.930;2023-06-14T03:28:18;100464.7969;;;;
44734;BME280;30462;52.446;-1.930;2023-06-14T03:29:18;100464.4648;;;;
44734;BME280;30462;52.446;-1.930;2023-06-14T03:30:17;100464.3281;;;;
44734;BME280;30462;52.446;-1.930;2023-06-14T03:31:18;100466.0352;;;;
44734;BME280;30462;52.446;-1.930;2023-06-14T03:32:18;100470.6523;;;;
44734;BME280;30462;52.446;-1.930;2023-06-14T03:33:18;100467.0781;;;;
44734;BME280;30462;52.446;-1.930;2023-06-14T03:34:18;100466.668;;;;
44734;BME280;30462;52.446;-1.930;2023-06-14T03:35:18;100472.0039;;;;
44734;BME280;30462;52.446;-1.930;2023-06-14T03:36:17;100468.4805;;;;
44734;BME280;30462;52.446;-1.930;2023-06-14T03:37:18;100469.0898;;;;
44734;BME280;30462;52.446;-1.930;2023-06-14T03:38:18;100470.2188;;;;
44734;BME280;30462;52.446;-1.930;2023-06-14T03:39:18;100465.7344;;;;
44734;BME280;30462;52.446;-1.930;2023-06-14T03:40:18;100464.0039;;;;
44734;BME280;30462;52.446;-1.930;2023-06-14T03:41:18;100462.5977;;;;
44734;BME280;30462;52.446;-1.930;2023-06-14T03:42:18;100460.293;;;;
44734;BME280;30462;52.446;-1.930;2023-06-14T03:43:18;100458.8867;;;;
44734;BME280;30462;52.446;-1.930;2023-06-14T03:44:18;100464.3047;;;;
44734;BME280;30462;52.446;-1.930;2023-06-14T03:45:18;100465.2109;;;;
44734;BME280;30462;52.446;-1.930;2023-06-14T03:46:18;100466.1406;;;;
44734;BME280;30462;52.446;-1.930;2023-06-14T03:47:18;100463.3398;;;;
44734;BME280;30462;52.446;-1.930;2023-06-14T03:48:18;100467.0547;;;;
44734;BME280;30462;52.446;-1.930;2023-06-14T03:49:19;100468.1211;;;;
44734;BME280;30462;52.446;-1.930;2023-06-14T03:50:18;100467.9844;;;;
44734;BME280;30462;52.446;-1.930;2023-06-14T03:51:17;100470.8203;;;;
44734;BME280;30462;52.446;-1.930;2023-06-14T03:52:18;100467.957;;;;
44734;BME280;30462;52.446;-1.930;2023-06-14T03:53:18;100474.1953;;;;
44734;BME280;30462;52.446;-1.930;2023-06-14T03:54:18;100473.3242;;;;
44734;BME280;30462;52.446;-1.930;2023-06-14T03:55:17;100472.6289;;;;
44734;BME280;30462;52.446;-1.930;2023-06-14T03:56:18;100471.9453;;;;
44734;BME280;30462;52.446;-1.930;2023-06-14T03:57:18;100472.6367;;;;
44734;BME280;30462;52.446;-1.930;2023-06-14T03:58:17;100471.8633;;;;
44734;BME280;30462;52.446;-1.930;2023-06-14T03:59:18;100471.1758;;;;
44734;BME280;30462;52.446;-1.930;2023-06-14T04:00:18;100472.3867;;;;
44734;BME280;30462;52.446;-1.930;2023-06-14T04:01:18;100476.207;;;;
44734;BME280;30462;52.446;-1.930;2023-06-14T04:02:18;100473.5117;;;;
44734;BME280;30462;52.446;-1.930;2023-06-14T04:03:18;100472.3828;;;;
44734;BME280;30462;52.446;-1.930;2023-06-14T04:04:18;100470.4023;;;;
44734;BME280;30462;52.446;-1.930;2023-06-14T04:05:17;100467.2383;;;;
44734;BME280;30462;52.446;-1.930;2023-06-14T04:06:18;100468.0117;;;;
44734;BME280;30462;52.446;-1.930;2023-06-14T04:07:17;100469.4102;;;;
44734;BME280;30462;52.446;-1.930;2023-06-14T04:08:18;100472.1016;;;;
44734;BME280;30462;52.446;-1.930;2023-06-14T04:09:18;100468.5586;;;;
44734;BME280;30462;52.446;-1.930;2023-06-14T04:10:18;100469.1133;;;;
44734;BME280;30462;52.446;-1.930;2023-06-14T04:11:18;100468.0039;;;;
44734;BME280;30462;52.446;-1.930;2023-06-14T04:12:18;100471.0039;;;;
44734;BME280;30462;52.446;-1.930;2023-06-14T04:13:18;100468.5352;;;;
44734;BME280;30462;52.446;-1.930;2023-06-14T04:14:18;100468.3359;;;;
44734;BME280;30462;52.446;-1.930;2023-06-14T04:15:18;100469.2969;;;;
44734;BME280;30462;52.446;-1.930;2023-06-14T04:16:18;100471.6563;;;;
44734;BME280;30462;52.446;-1.930;2023-06-14T04:17:18;100466.3281;;;;
44734;BME280;30462;52.446;-1.930;2023-06-14T04:18:18;100468.832;;;;
44734;BME280;30462;52.446;-1.930;2023-06-14T04:19:17;100468.0313;;;;
44734;BME280;30462;52.446;-1.930;2023-06-14T04:20:18;100462.0117;;;;
44734;BME280;30462;52.446;-1.930;2023-06-14T04:21:18;100462.5586;;;;
44734;BME280;30462;52.446;-1.930;2023-06-14T04:22:18;100461.1836;;;;
44734;BME280;30462;52.446;-1.930;2023-06-14T04:23:17;100458.4609;;;;
44734;BME280;30462;52.446;-1.930;2023-06-14T04:24:18;100458.9102;;;;
44734;BME280;30462;52.446;-1.930;2023-06-14T04:25:17;100459.7305;;;;
44734;BME280;30462;52.446;-1.930;2023-06-14T04:26:18;100456.6836;;;;
44734;BME280;30462;52.446;-1.930;2023-06-14T04:27:18;100459.1523;;;;
44734;BME280;30462;52.446;-1.930;2023-06-14T04:28:18;100460.7773;;;;
44734;BME280;30462;52.446;-1.930;2023-06-14T04:29:17;100456.9531;;;;
44734;BME280;30462;52.446;-1.930;2023-06-14T04:30:18;100458.6563;;;;
44734;BME280;30462;52.446;-1.930;2023-06-14T04:31:18;100461.0742;;;;
44734;BME280;30462;52.446;-1.930;2023-06-14T04:32:18;100461.5703;;;;
44734;BME280;30462;52.446;-1.930;2023-06-14T04:33:18;100461.5469;;;;
44734;BME280;30462;52.446;-1.930;2023-06-14T04:34:18;100460.9102;;;;
44734;BME280;30462;52.446;-1.930;2023-06-14T04:35:18;100458.625;;;;
44734;BME280;30462;52.446;-1.930;2023-06-14T04:36:18;100459.3477;;;;
44734;BME280;30462;52.446;-1.930;2023-06-14T04:37:18;100460.6406;;;;
44734;BME280;30462;52.446;-1.930;2023-06-14T04:38:18;100457.8398;;;;
44734;BME280;30462;52.446;-1.930;2023-06-14T04:39:19;100458.5195;;;;
44734;BME280;30462;52.446;-1.930;2023-06-14T04:40:18;100458.082;;;;
44734;BME280;30462;52.446;-1.930;2023-06-14T04:41:18;100460.0391;;;;
44734;BME280;30462;52.446;-1.930;2023-06-14T04:42:18;100454.9805;;;;
44734;BME280;30462;52.446;-1.930;2023-06-14T04:43:18;100454.375;;;;
44734;BME280;30462;52.446;-1.930;2023-06-14T04:44:18;100458.6914;;;;
44734;BME280;30462;52.446;-1.930;2023-06-14T04:45:18;100459.3828;;;;
44734;BME280;30462;52.446;-1.930;2023-06-14T04:46:18;100462.7344;;;;
44734;BME280;30462;52.446;-1.930;2023-06-14T04:47:17;100457.707;;;;
44734;BME280;30462;52.446;-1.930;2023-06-14T04:48:18;100454.7383;;;;
44734;BME280;30462;52.446;-1.930;2023-06-14T04:49:18;100457.1797;;;;
44734;BME280;30462;52.446;-1.930;2023-06-14T04:50:17;100462.3828;;;;
44734;BME280;30462;52.446;-1.930;2023-06-14T04:51:18;100458.7188;;;;
44734;BME280;30462;52.446;-1.930;2023-06-14T04:52:18;100456.1914;;;;
44734;BME280;30462;52.446;-1.930;2023-06-14T04:53:18;100457.5391;;;;
44734;BME280;30462;52.446;-1.930;2023-06-14T04:54:18;100453.2266;;;;
44734;BME280;30462;52.446;-1.930;2023-06-14T04:55:18;100454.6836;;;;
44734;BME280;30462;52.446;-1.930;2023-06-14T04:56:18;100454.6055;;;;
44734;BME280;30462;52.446;-1.930;2023-06-14T04:57:18;100455.9453;;;;
44734;BME280;30462;52.446;-1.930;2023-06-14T04:58:17;100457.5664;;;;
44734;BME280;30462;52.446;-1.930;2023-06-14T04:59:18;100458.0117;;;;
44734;BME280;30462;52.446;-1.930;2023-06-14T05:00:18;100458.418;;;;
44734;BME280;30462;52.446;-1.930;2023-06-14T05:01:18;100455.832;;;;
44734;BME280;30462;52.446;-1.930;2023-06-14T05:02:18;100460.0703;;;;
44734;BME280;30462;52.446;-1.930;2023-06-14T05:03:18;100456.8008;;;;
44734;BME280;30462;52.446;-1.930;2023-06-14T05:04:18;100457.375;;;;
44734;BME280;30462;52.446;-1.930;2023-06-14T05:05:18;100453.5273;;;;
44734;BME280;30462;52.446;-1.930;2023-06-14T05:06:18;100453.2539;;;;
44734;BME280;30462;52.446;-1.930;2023-06-14T05:07:18;100452.8438;;;;
44734;BME280;30462;52.446;-1.930;2023-06-14T05:08:17;100457.5156;;;;
44734;BME280;30462;52.446;-1.930;2023-06-14T05:09:17;100453.9375;;;;
44734;BME280;30462;52.446;-1.930;2023-06-14T05:10:18;100458.5039;;;;
44734;BME280;30462;52.446;-1.930;2023-06-14T05:11:18;100455.3398;;;;
44734;BME280;30462;52.446;-1.930;2023-06-14T05:12:18;100461.3945;;;;
44734;BME280;30462;52.446;-1.930;2023-06-14T05:13:18;100464.0039;;;;
44734;BME280;30462;52.446;-1.930;2023-06-14T05:14:17;100464.9648;;;;
44734;BME280;30462;52.446;-1.930;2023-06-14T05:15:18;100464.9609;;;;
44734;BME280;30462;52.446;-1.930;2023-06-14T05:16:18;100464.4922;;;;
44734;BME280;30462;52.446;-1.930;2023-06-14T05:17:18;100462.5703;;;;
44734;BME280;30462;52.446;-1.930;2023-06-14T05:18:17;100464.3906;;;;
44734;BME280;30462;52.446;-1.930;2023-06-14T05:19:17;100464.6836;;;;
44734;BME280;30462;52.446;-1.930;2023-06-14T05:20:19;100463.2539;;;;
44734;BME280;30462;52.446;-1.930;2023-06-14T05:21:17;100463.7617;;;;
44734;BME280;30462;52.446;-1.930;2023-06-14T05:22:18;100465.5664;;;;
44734;BME280;30462;52.446;-1.930;2023-06-14T05:23:18;100466.3398;;;;
44734;BME280;30462;52.446;-1.930;2023-06-14T05:24:18;100468.8164;;;;
44734;BME280;30462;52.446;-1.930;2023-06-14T05:25:18;100467.7109;;;;
44734;BME280;30462;52.446;-1.930;2023-06-14T05:26:18;100470.2383;;;;
44734;BME280;30462;52.446;-1.930;2023-06-14T05:27:18;100464.582;;;;
44734;BME280;30462;52.446;-1.930;2023-06-14T05:28:18;100471.125;;;;
44734;BME280;30462;52.446;-1.930;2023-06-14T05:29:18;100469.2539;;;;
44734;BME280;30462;52.446;-1.930;2023-06-14T05:30:17;100469.4766;;;;
44734;BME280;30462;52.446;-1.930;2023-06-14T05:31:18;100465.8984;;;;
44734;BME280;30462;52.446;-1.930;2023-06-14T05:32:18;100468.8906;;;;
44734;BME280;30462;52.446;-1.930;2023-06-14T05:33:18;100467.4375;;;;
44734;BME280;30462;52.446;-1.930;2023-06-14T05:34:18;100466.9141;;;;
44734;BME280;30462;52.446;-1.930;2023-06-14T05:35:17;100464.1094;;;;
44734;BME280;30462;52.446;-1.930;2023-06-14T05:36:18;100466.582;;;;
44734;BME280;30462;52.446;-1.930;2023-06-14T05:37:17;100463.3125;;;;
44734;BME280;30462;52.446;-1.930;2023-06-14T05:38:18;100467.3281;;;;
44734;BME280;30462;52.446;-1.930;2023-06-14T05:39:18;100466.0078;;;;
44734;BME280;30462;52.446;-1.930;2023-06-14T05:40:18;100468.0977;;;;
44734;BME280;30462;52.446;-1.930;2023-06-14T05:41:18;100470.1328;;;;
44734;BME280;30462;52.446;-1.930;2023-06-14T05:42:18;100467;;;;
44734;BME280;30462;52.446;-1.930;2023-06-14T05:43:17;100467.0039;;;;
44734;BME280;30462;52.446;-1.930;2023-06-14T05:44:18;100468.9219;;;;
44734;BME280;30462;52.446;-1.930;2023-06-14T05:45:18;100472.5234;;;;
44734;BME280;30462;52.446;-1.930;2023-06-14T05:46:18;100472.418;;;;
44734;BME280;30462;52.446;-1.930;2023-06-14T05:47:18;100468.8945;;;;